createdAt,value
2019-05-17T00:00:00.993Z,17.70
2019-05-17T00:02:31.620Z,19.00
2019-05-17T00:05:02.207Z,18.90
2019-05-17T00:07:32.857Z,21.80
2019-05-17T00:10:06.773Z,17.10
2019-05-17T00:12:37.679Z,19.23
2019-05-17T00:15:09.130Z,16.87
2019-05-17T00:17:39.734Z,26.00
2019-05-17T00:20:11.933Z,17.47
2019-05-17T00:22:42.544Z,17.90
2019-05-17T00:25:13.447Z,17.43
2019-05-17T00:27:44.030Z,21.63
2019-05-17T00:30:17.298Z,18.33
2019-05-17T00:32:47.809Z,21.40
2019-05-17T00:35:18.380Z,21.27
2019-05-17T00:37:48.966Z,15.70
2019-05-17T00:40:19.630Z,15.97
2019-05-17T00:42:50.223Z,16.20
2019-05-17T00:45:20.804Z,18.97
2019-05-17T00:47:51.396Z,14.50
2019-05-17T00:50:21.976Z,15.13
2019-05-17T00:52:52.587Z,18.00
2019-05-17T00:55:23.265Z,16.97
2019-05-17T00:57:56.813Z,15.80
2019-05-17T01:00:27.968Z,19.20
2019-05-17T01:02:58.678Z,26.13
2019-05-17T01:05:29.465Z,23.17
2019-05-17T01:08:00.250Z,27.73
2019-05-17T01:10:30.932Z,23.57
2019-05-17T01:13:01.616Z,22.93
2019-05-17T01:15:32.272Z,18.23
2019-05-17T01:18:03.277Z,18.90
2019-05-17T01:20:33.974Z,23.93
2019-05-17T01:23:04.525Z,25.97
2019-05-17T01:25:36.723Z,24.83
2019-05-17T01:28:08.376Z,30.20
2019-05-17T01:30:38.964Z,24.53
2019-05-17T01:33:09.623Z,21.63
2019-05-17T01:35:40.293Z,22.43
2019-05-17T01:38:10.891Z,23.43
2019-05-17T01:40:41.486Z,20.20
2019-05-17T01:43:12.085Z,21.93
2019-05-17T01:45:42.669Z,23.20
2019-05-17T01:48:13.304Z,28.40
2019-05-17T01:50:46.483Z,28.77
2019-05-17T01:53:17.177Z,23.73
2019-05-17T01:55:47.756Z,26.27
2019-05-17T01:58:18.417Z,25.20
2019-05-17T02:00:48.973Z,21.17
2019-05-17T02:03:19.575Z,23.33
2019-05-17T02:05:50.156Z,19.90
2019-05-17T02:08:20.837Z,16.40
2019-05-17T02:10:52.605Z,20.27
2019-05-17T02:13:23.198Z,20.47
2019-05-17T02:15:56.278Z,18.17
2019-05-17T02:18:26.711Z,19.10
2019-05-17T02:20:57.389Z,19.73
2019-05-17T02:23:28.932Z,19.00
2019-05-17T02:25:59.530Z,16.57
2019-05-17T02:28:32.178Z,19.37
2019-05-17T02:31:03.661Z,19.83
2019-05-17T02:33:34.303Z,18.27
2019-05-17T02:36:04.929Z,19.07
2019-05-17T02:38:35.513Z,23.17
2019-05-17T02:41:06.172Z,21.10
2019-05-17T02:43:36.741Z,24.83
2019-05-17T02:46:07.327Z,22.70
2019-05-17T02:48:37.907Z,24.40
2019-05-17T02:51:08.494Z,40.40
2019-05-17T02:53:39.076Z,34.30
2019-05-17T02:56:13.503Z,28.93
2019-05-17T02:58:43.888Z,27.73
2019-05-17T03:01:14.716Z,35.17
2019-05-17T03:03:46.734Z,32.90
2019-05-17T03:06:17.334Z,32.83
2019-05-17T03:08:47.980Z,33.40
2019-05-17T03:11:18.572Z,30.23
2019-05-17T03:13:49.132Z,29.67
2019-05-17T03:16:23.361Z,31.37
2019-05-17T03:18:52.976Z,94.80
2019-05-17T03:21:23.796Z,89.10
2019-05-17T03:23:55.358Z,64.33
2019-05-17T03:26:27.422Z,44.87
2019-05-17T03:28:58.012Z,34.20
2019-05-17T03:31:34.498Z,33.00
2019-05-17T03:34:06.272Z,31.70
2019-05-17T03:36:36.100Z,31.53
2019-05-17T03:39:07.522Z,27.70
2019-05-17T03:41:38.083Z,24.50
2019-05-17T03:44:08.669Z,25.70
2019-05-17T03:46:42.354Z,21.43
2019-05-17T03:49:13.119Z,24.73
2019-05-17T03:51:43.874Z,23.20
2019-05-17T03:54:14.442Z,23.23
2019-05-17T03:56:45.024Z,22.87
2019-05-17T03:59:16.112Z,22.53
2019-05-17T04:01:46.673Z,25.13
2019-05-17T04:04:17.337Z,22.87
2019-05-17T04:06:47.853Z,24.57
2019-05-17T04:09:22.240Z,27.47
2019-05-17T04:11:53.657Z,26.07
2019-05-17T04:14:24.129Z,23.90
2019-05-17T04:16:54.719Z,25.20
2019-05-17T04:19:25.337Z,23.53
2019-05-17T04:21:55.985Z,27.77
2019-05-17T04:24:26.765Z,29.97
2019-05-17T04:26:57.607Z,28.40
2019-05-17T04:29:28.307Z,25.40
2019-05-17T04:31:58.939Z,34.70
2019-05-17T04:34:33.242Z,34.27
2019-05-17T04:37:04.435Z,36.07
2019-05-17T04:39:34.514Z,31.73
2019-05-17T04:42:05.182Z,29.63
2019-05-17T04:44:36.001Z,32.50
2019-05-17T04:47:06.721Z,41.07
2019-05-17T04:49:37.332Z,41.80
2019-05-17T04:52:07.976Z,38.33
2019-05-17T04:54:38.556Z,34.17
2019-05-17T04:57:09.313Z,36.60
2019-05-17T04:59:43.153Z,33.83
2019-05-17T05:02:13.283Z,41.90
2019-05-17T05:04:44.466Z,41.00
2019-05-17T05:07:17.945Z,43.77
2019-05-17T05:09:52.249Z,44.73
2019-05-17T05:12:22.859Z,40.43
2019-05-17T05:14:53.765Z,34.60
2019-05-17T05:17:24.670Z,40.20
2019-05-17T05:19:55.348Z,42.50
2019-05-17T05:22:26.024Z,47.87
2019-05-17T05:24:56.637Z,33.23
2019-05-17T05:27:27.214Z,33.87
2019-05-17T05:29:57.896Z,32.60
2019-05-17T05:32:31.638Z,35.40
2019-05-17T05:35:03.150Z,31.50
2019-05-17T05:37:34.271Z,36.13
2019-05-17T05:40:06.967Z,29.27
2019-05-17T05:42:37.639Z,31.17
2019-05-17T05:45:08.662Z,31.90
2019-05-17T05:47:41.566Z,43.03
2019-05-17T05:50:12.897Z,31.00
2019-05-17T05:52:44.054Z,33.03
2019-05-17T05:55:14.883Z,31.23
2019-05-17T05:57:45.514Z,30.30
2019-05-17T06:00:18.196Z,56.33
2019-05-17T06:02:48.850Z,29.20
2019-05-17T06:05:21.772Z,29.83
2019-05-17T06:07:52.284Z,23.67
2019-05-17T06:10:22.920Z,23.33
2019-05-17T06:12:53.499Z,23.70
2019-05-17T06:15:24.342Z,22.43
2019-05-17T06:17:55.026Z,20.47
2019-05-17T06:20:26.674Z,23.13
2019-05-17T06:22:57.385Z,24.80
2019-05-17T06:25:28.015Z,24.33
2019-05-17T06:27:58.596Z,24.73
2019-05-17T06:30:29.201Z,23.10
2019-05-17T06:33:02.254Z,22.70
2019-05-17T06:35:32.619Z,22.00
2019-05-17T06:38:03.361Z,18.03
2019-05-17T06:40:34.320Z,20.97
2019-05-17T06:43:04.942Z,19.90
2019-05-17T06:45:35.552Z,17.37
2019-05-17T06:48:06.329Z,20.50
2019-05-17T06:50:37.005Z,19.57
2019-05-17T06:53:07.717Z,51.87
2019-05-17T06:55:38.308Z,25.47
2019-05-17T06:58:08.892Z,17.07
2019-05-17T07:00:40.423Z,18.20
2019-05-17T07:03:12.275Z,19.90
2019-05-17T07:05:44.907Z,20.13
2019-05-17T07:08:15.490Z,21.13
2019-05-17T07:10:46.485Z,19.63
2019-05-17T07:13:17.135Z,18.90
2019-05-17T07:15:50.262Z,20.57
2019-05-17T07:18:20.093Z,19.13
2019-05-17T07:20:50.700Z,18.83
2019-05-17T07:23:21.293Z,21.87
2019-05-17T07:25:52.012Z,24.60
2019-05-17T07:28:22.609Z,22.77
2019-05-17T07:30:54.653Z,21.17
2019-05-17T07:33:25.307Z,46.30
2019-05-17T07:35:55.888Z,22.20
2019-05-17T07:38:26.474Z,20.73
2019-05-17T07:40:59.375Z,17.07
2019-05-17T07:43:29.805Z,19.60
2019-05-17T07:46:00.685Z,23.43
2019-05-17T07:48:31.604Z,20.00
2019-05-17T07:51:03.430Z,21.27
2019-05-17T07:53:33.914Z,19.87
2019-05-17T07:56:04.520Z,19.03
2019-05-17T07:58:35.393Z,17.13
2019-05-17T08:01:06.819Z,15.53
2019-05-17T08:03:37.395Z,16.07
2019-05-17T08:06:10.618Z,17.83
2019-05-17T08:08:41.711Z,17.23
2019-05-17T08:11:12.391Z,14.33
2019-05-17T08:13:43.078Z,18.83
2019-05-17T08:16:13.676Z,16.37
2019-05-17T08:18:44.253Z,17.93
2019-05-17T08:21:14.844Z,14.90
2019-05-17T08:23:45.548Z,18.23
2019-05-17T08:26:16.125Z,14.40
2019-05-17T08:28:46.914Z,16.77
2019-05-17T08:31:20.022Z,16.40
2019-05-17T08:33:49.959Z,16.07
2019-05-17T08:36:20.793Z,20.63
2019-05-17T08:38:51.375Z,21.00
2019-05-17T08:41:22.063Z,15.90
2019-05-17T08:43:52.664Z,16.27
2019-05-17T08:46:23.328Z,16.33
2019-05-17T08:48:53.912Z,16.37
2019-05-17T08:51:24.541Z,19.13
2019-05-17T08:53:55.119Z,17.17
2019-05-17T08:56:25.728Z,15.77
2019-05-17T08:58:56.315Z,20.40
2019-05-17T09:01:26.909Z,21.30
2019-05-17T09:03:59.677Z,20.80
2019-05-17T09:06:29.808Z,19.73
2019-05-17T09:09:00.935Z,21.07
2019-05-17T09:11:33.021Z,22.37
2019-05-17T09:14:04.379Z,20.17
2019-05-17T09:16:35.072Z,15.27
2019-05-17T09:19:05.656Z,27.90
2019-05-17T09:21:36.747Z,27.13
2019-05-17T09:24:07.428Z,20.87
2019-05-17T09:26:39.922Z,22.53
2019-05-17T09:29:10.887Z,22.93
2019-05-17T09:31:41.536Z,19.30
2019-05-17T09:34:12.127Z,20.87
2019-05-17T09:36:42.748Z,25.43
2019-05-17T09:39:14.644Z,27.33
2019-05-17T09:41:45.199Z,30.90
2019-05-17T09:44:16.577Z,20.27
2019-05-17T09:46:47.260Z,21.03
2019-05-17T09:49:19.266Z,18.73
2019-05-17T09:51:50.004Z,22.17
2019-05-17T09:54:20.637Z,20.07
2019-05-17T09:56:51.530Z,20.60
2019-05-17T09:59:22.101Z,19.93
2019-05-17T10:01:52.759Z,20.90
2019-05-17T10:04:23.394Z,18.30
2019-05-17T10:06:53.998Z,17.03
2019-05-17T10:09:24.606Z,20.23
2019-05-17T10:11:55.188Z,42.23
2019-05-17T10:14:29.048Z,20.13
2019-05-17T10:17:00.311Z,19.03
2019-05-17T10:19:30.563Z,23.43
2019-05-17T10:22:01.448Z,39.57
2019-05-17T10:24:38.166Z,27.73
2019-05-17T10:27:04.545Z,22.30
2019-05-17T10:29:35.167Z,19.43
2019-05-17T10:32:05.769Z,22.33
2019-05-17T10:34:36.371Z,26.40
2019-05-17T10:37:06.958Z,19.57
2019-05-17T10:39:40.982Z,18.77
2019-05-17T10:42:10.120Z,23.33
2019-05-17T10:44:47.196Z,18.97
2019-05-17T10:47:13.267Z,26.17
2019-05-17T10:49:44.270Z,19.80
2019-05-17T10:52:14.879Z,21.10
2019-05-17T10:54:45.445Z,19.50
2019-05-17T10:57:16.022Z,23.00
2019-05-17T10:59:46.668Z,21.53
2019-05-17T11:02:19.669Z,23.67
2019-05-17T11:04:50.594Z,21.93
2019-05-17T11:07:21.419Z,19.30
2019-05-17T11:09:52.102Z,21.67
2019-05-17T11:12:22.823Z,19.70
2019-05-17T11:15:09.658Z,20.50
2019-05-17T11:17:25.692Z,18.77
2019-05-17T11:19:56.280Z,20.10
2019-05-17T11:22:26.867Z,19.03
2019-05-17T11:24:57.486Z,19.47
2019-05-17T11:27:28.082Z,20.20
2019-05-17T11:29:58.661Z,18.47
2019-05-17T11:32:29.302Z,17.77
2019-05-17T11:34:59.861Z,18.67
2019-05-17T11:37:30.667Z,18.93
2019-05-17T11:40:01.446Z,17.40
2019-05-17T11:42:32.024Z,15.60
2019-05-17T11:45:02.610Z,16.40
2019-05-17T11:47:33.247Z,16.00
2019-05-17T11:50:05.828Z,17.10
2019-05-17T11:52:36.596Z,26.57
2019-05-17T11:55:07.541Z,21.53
2019-05-17T11:57:38.125Z,16.73
2019-05-17T12:00:09.955Z,18.77
2019-05-17T12:02:40.544Z,25.43
2019-05-17T12:05:12.161Z,15.83
2019-05-17T12:07:42.842Z,17.57
2019-05-17T12:10:13.894Z,18.33
2019-05-17T12:12:44.464Z,18.30
2019-05-17T12:15:15.252Z,17.13
2019-05-17T12:17:45.845Z,16.00
2019-05-17T12:20:18.982Z,14.67
2019-05-17T12:22:49.565Z,13.40
2019-05-17T12:25:20.428Z,19.03
2019-05-17T12:27:52.479Z,14.60
2019-05-17T12:30:23.323Z,20.33
2019-05-17T12:32:53.909Z,16.20
2019-05-17T12:35:24.499Z,14.03
2019-05-17T12:37:55.104Z,17.07
2019-05-17T12:40:27.232Z,15.77
2019-05-17T12:42:57.809Z,12.87
2019-05-17T12:45:28.416Z,17.37
2019-05-17T12:47:59.308Z,17.40
2019-05-17T12:50:29.945Z,15.63
2019-05-17T12:53:00.506Z,20.50
2019-05-17T12:55:31.089Z,24.87
2019-05-17T12:58:02.226Z,32.47
2019-05-17T13:00:32.793Z,18.93
2019-05-17T13:03:04.351Z,22.40
2019-05-17T13:05:34.944Z,18.67
2019-05-17T13:08:05.786Z,23.70
2019-05-17T13:10:36.414Z,26.17
2019-05-17T13:13:09.556Z,18.50
2019-05-17T13:15:39.297Z,18.43
2019-05-17T13:18:10.127Z,18.37
2019-05-17T13:20:40.709Z,22.17
2019-05-17T13:23:11.310Z,15.40
2019-05-17T13:25:44.735Z,17.90
2019-05-17T13:28:16.262Z,19.07
2019-05-17T13:30:46.886Z,15.33
2019-05-17T13:33:17.662Z,16.17
2019-05-17T13:35:48.267Z,17.50
2019-05-17T13:38:19.502Z,18.90
2019-05-17T13:40:50.118Z,16.07
2019-05-17T13:43:20.909Z,17.10
2019-05-17T13:45:52.759Z,25.10
2019-05-17T13:48:23.326Z,19.07
2019-05-17T13:50:53.919Z,21.03
2019-05-17T13:53:24.537Z,17.07
2019-05-17T13:55:55.203Z,17.40
2019-05-17T13:58:25.925Z,17.37
2019-05-17T14:00:57.467Z,20.77
2019-05-17T14:03:28.092Z,17.77
2019-05-17T14:06:01.733Z,20.13
2019-05-17T14:08:33.285Z,16.17
2019-05-17T14:11:04.227Z,18.20
2019-05-17T14:13:36.429Z,16.07
2019-05-17T14:16:07.373Z,20.27
2019-05-17T14:18:38.095Z,16.43
2019-05-17T14:21:08.930Z,19.47
2019-05-17T14:23:39.626Z,16.83
2019-05-17T14:26:11.941Z,18.07
2019-05-17T14:28:43.575Z,17.73
2019-05-17T14:31:14.551Z,17.10
2019-05-17T14:33:46.521Z,14.13
2019-05-17T14:36:17.393Z,15.17
2019-05-17T14:38:49.199Z,12.47
2019-05-17T14:41:20.071Z,19.00
2019-05-17T14:43:50.967Z,18.43
2019-05-17T14:46:21.684Z,16.87
2019-05-17T14:48:52.384Z,17.80
2019-05-17T14:51:22.956Z,20.53
2019-05-17T14:53:53.587Z,15.23
2019-05-17T14:56:24.171Z,19.37
2019-05-17T14:58:54.945Z,17.43
2019-05-17T15:01:25.735Z,18.83
2019-05-17T15:03:56.305Z,14.60
2019-05-17T15:06:26.972Z,20.47
2019-05-17T15:08:57.481Z,16.73
2019-05-17T15:11:28.191Z,16.70
2019-05-17T15:13:58.781Z,17.77
2019-05-17T15:16:29.364Z,14.27
2019-05-17T15:18:59.974Z,28.53
2019-05-17T15:21:30.793Z,18.60
2019-05-17T15:24:01.406Z,15.07
2019-05-17T15:26:31.965Z,21.43
2019-05-17T15:29:03.581Z,17.20
2019-05-17T15:31:34.205Z,17.97
2019-05-17T15:34:04.912Z,17.57
2019-05-17T15:36:35.474Z,18.53
2019-05-17T15:39:06.925Z,15.10
2019-05-17T15:41:37.602Z,15.77
2019-05-17T15:44:08.206Z,16.00
2019-05-17T15:46:38.862Z,17.97
2019-05-17T15:49:09.546Z,16.77
2019-05-17T15:51:40.233Z,13.67
2019-05-17T15:54:10.811Z,16.60
2019-05-17T15:56:43.029Z,18.70
2019-05-17T15:59:13.606Z,14.40
2019-05-17T16:01:45.233Z,18.13
2019-05-17T16:04:15.891Z,20.13
2019-05-17T16:06:46.577Z,18.17
2019-05-17T16:09:17.523Z,16.03
2019-05-17T16:11:48.101Z,22.47
2019-05-17T16:14:18.704Z,17.60
2019-05-17T16:16:49.292Z,20.40
2019-05-17T16:19:19.879Z,22.43
2019-05-17T16:21:50.568Z,31.20
2019-05-17T16:24:21.165Z,24.17
2019-05-17T16:26:51.993Z,18.67
2019-05-17T16:29:23.573Z,19.10
2019-05-17T16:31:54.253Z,21.97
2019-05-17T16:34:24.961Z,23.90
2019-05-17T16:36:55.587Z,27.07
2019-05-17T16:39:27.166Z,19.67
2019-05-17T16:41:57.733Z,18.00
2019-05-17T16:44:28.349Z,17.37
2019-05-17T16:46:59.087Z,15.57
2019-05-17T16:49:29.648Z,17.50
2019-05-17T16:52:00.416Z,15.67
2019-05-17T16:54:31.114Z,15.93
2019-05-17T16:57:01.724Z,18.47
2019-05-17T16:59:32.308Z,18.30
2019-05-17T17:02:02.923Z,13.30
2019-05-17T17:04:35.025Z,15.90
2019-05-17T17:07:05.874Z,18.60
2019-05-17T17:09:36.704Z,18.90
2019-05-17T17:12:07.409Z,13.23
2019-05-17T17:14:38.956Z,17.93
2019-05-17T17:17:12.130Z,16.97
2019-05-17T17:19:42.095Z,13.27
2019-05-17T17:22:12.839Z,13.37
2019-05-17T17:24:43.521Z,13.77
2019-05-17T17:27:14.256Z,21.60
2019-05-17T17:29:46.325Z,14.70
2019-05-17T17:32:21.579Z,14.63
2019-05-17T17:34:49.432Z,15.93
2019-05-17T17:37:20.685Z,19.10
2019-05-17T17:39:53.320Z,16.77
2019-05-17T17:42:23.803Z,16.03
2019-05-17T17:44:54.461Z,15.77
2019-05-17T17:47:25.050Z,14.30
2019-05-17T17:49:55.712Z,13.13
2019-05-17T17:52:26.287Z,14.93
2019-05-17T17:54:56.860Z,16.50
2019-05-17T17:57:29.135Z,13.57
2019-05-17T17:59:59.916Z,12.57
2019-05-17T18:02:30.709Z,14.90
2019-05-17T18:05:02.292Z,14.40
2019-05-17T18:07:32.952Z,15.03
2019-05-17T18:10:06.463Z,13.60
2019-05-17T18:12:37.151Z,11.87
2019-05-17T18:15:09.654Z,21.80
2019-05-17T18:17:40.280Z,12.53
2019-05-17T18:20:10.830Z,11.87
2019-05-17T18:22:41.431Z,12.73
2019-05-17T18:25:13.718Z,16.67
2019-05-17T18:27:46.197Z,18.97
2019-05-17T18:30:17.130Z,16.30
2019-05-17T18:32:47.735Z,17.87
2019-05-17T18:35:19.339Z,18.23
2019-05-17T18:37:50.485Z,35.53
2019-05-17T18:40:21.168Z,16.27
2019-05-17T18:42:52.130Z,15.03
2019-05-17T18:45:23.487Z,15.97
2019-05-17T18:47:55.075Z,14.67
2019-05-17T18:50:28.576Z,17.00
2019-05-17T18:52:59.308Z,21.60
2019-05-17T18:55:32.141Z,22.10
2019-05-17T18:58:02.875Z,20.27
2019-05-17T19:00:33.561Z,19.13
2019-05-17T19:03:04.376Z,19.13
2019-05-17T19:05:36.589Z,23.47
2019-05-17T19:08:07.222Z,20.60
2019-05-17T19:10:38.318Z,18.80
2019-05-17T19:13:09.102Z,23.63
2019-05-17T19:15:39.840Z,24.50
2019-05-17T19:18:10.600Z,20.63
2019-05-17T19:20:41.703Z,18.23
2019-05-17T19:23:12.398Z,23.07
2019-05-17T19:25:43.250Z,19.27
2019-05-17T19:28:13.955Z,21.27
2019-05-17T19:30:44.755Z,20.20
2019-05-17T19:33:15.486Z,22.00
2019-05-17T19:35:47.946Z,18.67
2019-05-17T19:38:18.591Z,23.83
2019-05-17T19:40:50.046Z,20.10
2019-05-17T19:43:21.792Z,23.13
2019-05-17T19:45:54.094Z,30.30
2019-05-17T19:48:24.903Z,23.90
2019-05-17T19:50:55.689Z,22.83
2019-05-17T19:53:27.530Z,26.73
2019-05-17T19:55:58.222Z,21.53
2019-05-17T19:58:29.112Z,23.60
2019-05-17T20:01:00.109Z,26.93
2019-05-17T20:03:30.897Z,25.80
2019-05-17T20:06:01.980Z,26.10
2019-05-17T20:08:32.801Z,24.70
2019-05-17T20:11:03.481Z,21.80
2019-05-17T20:13:34.303Z,25.33
2019-05-17T20:16:06.767Z,25.50
2019-05-17T20:18:37.935Z,24.63
2019-05-17T20:21:08.914Z,27.83
2019-05-17T20:23:43.660Z,25.73
2019-05-17T20:26:14.184Z,27.57
2019-05-17T20:28:47.582Z,26.47
2019-05-17T20:31:18.430Z,28.87
2019-05-17T20:33:49.039Z,27.33
2019-05-17T20:36:21.668Z,28.90
2019-05-17T20:38:55.085Z,29.27
2019-05-17T20:41:27.467Z,28.17
2019-05-17T20:43:58.139Z,27.00
2019-05-17T20:46:30.627Z,30.97
2019-05-17T20:49:01.222Z,30.87
2019-05-17T20:51:32.608Z,33.30
2019-05-17T20:54:04.957Z,27.27
2019-05-17T20:56:35.551Z,26.47
2019-05-17T20:59:09.236Z,29.07
2019-05-17T21:01:39.834Z,30.87
2019-05-17T21:04:10.402Z,27.30
2019-05-17T21:06:41.203Z,31.13
2019-05-17T21:09:11.935Z,30.83
2019-05-17T21:11:42.525Z,30.07
2019-05-17T21:14:13.672Z,30.73
2019-05-17T21:16:44.570Z,33.60
2019-05-17T21:19:15.325Z,29.80
2019-05-17T21:21:46.136Z,34.27
2019-05-17T21:24:17.048Z,32.20
2019-05-17T21:26:47.714Z,31.97
2019-05-17T21:29:18.635Z,32.47
2019-05-17T21:31:49.210Z,34.23
2019-05-17T21:34:19.806Z,36.53
2019-05-17T21:36:50.574Z,32.67
2019-05-17T21:39:21.172Z,35.13
2019-05-17T21:41:51.933Z,34.17
2019-05-17T21:44:22.537Z,36.03
2019-05-17T21:47:04.163Z,34.77
2019-05-17T21:49:25.627Z,37.77
2019-05-17T21:51:57.117Z,34.13
2019-05-17T21:54:27.735Z,34.83
2019-05-17T21:56:59.520Z,35.80
2019-05-17T21:59:30.068Z,37.00
2019-05-17T22:02:01.858Z,34.70
2019-05-17T22:04:32.465Z,38.10
2019-05-17T22:07:03.132Z,33.80
2019-05-17T22:09:33.790Z,32.80
2019-05-17T22:12:06.023Z,32.67
2019-05-17T22:14:36.607Z,35.00
2019-05-17T22:17:07.271Z,32.50
2019-05-17T22:19:37.857Z,34.47
2019-05-17T22:22:08.415Z,36.03
2019-05-17T22:24:39.141Z,39.60
2019-05-17T22:27:10.018Z,45.07
2019-05-17T22:29:40.666Z,51.03
2019-05-17T22:32:11.285Z,45.50
2019-05-17T22:34:43.515Z,47.10
2019-05-17T22:37:17.345Z,44.27
2019-05-17T22:39:46.369Z,39.97
2019-05-17T22:42:17.060Z,39.67
2019-05-17T22:44:48.288Z,42.33
2019-05-17T22:47:18.973Z,38.90
2019-05-17T22:49:49.567Z,33.47
2019-05-17T22:52:20.279Z,35.77
2019-05-17T22:54:50.857Z,38.43
2019-05-17T22:57:21.601Z,34.83
2019-05-17T22:59:52.616Z,37.90
2019-05-17T23:02:23.439Z,40.83
2019-05-17T23:04:54.123Z,33.03
2019-05-17T23:07:24.801Z,34.27
2019-05-17T23:09:55.561Z,37.40
2019-05-17T23:12:26.342Z,35.67
2019-05-17T23:14:57.017Z,30.57
2019-05-17T23:17:27.737Z,31.87
2019-05-17T23:19:58.411Z,31.70
2019-05-17T23:22:30.156Z,36.10
2019-05-17T23:25:00.737Z,37.90
2019-05-17T23:27:31.688Z,37.33
2019-05-17T23:30:02.369Z,40.43
2019-05-17T23:32:33.051Z,37.83
2019-05-17T23:35:04.607Z,43.33
2019-05-17T23:37:35.557Z,41.50
2019-05-17T23:40:08.571Z,38.33
2019-05-17T23:42:39.153Z,39.57
2019-05-17T23:45:10.177Z,37.67
2019-05-17T23:47:40.756Z,40.83
2019-05-17T23:50:11.570Z,37.63
2019-05-17T23:52:42.149Z,40.53
2019-05-17T23:55:12.803Z,36.67
2019-05-17T23:57:43.381Z,37.17
